This is the latest recevied weather packets stored in our database for station/object WB4MOZ-3. If no packets are shown the sender has not sent any weather packets the latest 1 day(s).
| Time | Temp. | Humidity | Pressure | Rain* | Wind** | Luminosity | Snow |
|---|---|---|---|---|---|---|---|
| 1836274844 | 27.22° C | 88% | 1012.2 hPa | 0 mm | 1.34 m/s, 59° | - | - |
| 1836274544 | 26.67° C | 89% | 1012.2 hPa | 0 mm | 1.34 m/s, 26° | - | - |
| 1836274394 | 27.22° C | 85% | 1012.3 hPa | 0 mm | 1.34 m/s, 24° | - | - |
| 1836274244 | 26.67° C | 90% | 1012.2 hPa | 0 mm | 1.34 m/s, 31° | - | - |
| 1836273946 | 26.67° C | 90% | 1012.3 hPa | 0 mm | 1.34 m/s, 38° | - | - |
| 1778042680 | 25° C | 88% | 1014.3 hPa | 0 mm | 0 m/s | - | - |
| 1778042380 | 25° C | 88% | 1014.3 hPa | 0 mm | 0.45 m/s, 51° | - | - |
| 1778042078 | 25° C | 87% | 1014.4 hPa | 0 mm | 0.89 m/s, 87° | - | - |
| 1778041780 | 25.56° C | 87% | 1014.4 hPa | 0 mm | 0.45 m/s, 81° | - | - |
| 1778041477 | 25.56° C | 86% | 1014.5 hPa | 0 mm | 0 m/s | - | - |
| 1778041178 | 25.56° C | 86% | 1014.4 hPa | 0 mm | 0.45 m/s, 80° | - | - |
| 1778040877 | 25.56° C | 86% | 1014.4 hPa | 0 mm | 0 m/s | - | - |
| 1778040577 | 25.56° C | 85% | 1014.6 hPa | 0 mm | 0.45 m/s, 35° | - | - |
| 1778040277 | 25.56° C | 84% | 1014.6 hPa | 0 mm | 0 m/s | - | - |
| 1778039977 | 26.11° C | 84% | 1014.6 hPa | 0 mm | 0.45 m/s, 50° | - | - |
| 1778039678 | 25.56° C | 84% | 1014.5 hPa | 0 mm | 0 m/s | - | - |
| 1778039077 | 25.56° C | 84% | 1014.5 hPa | 0 mm | 1.34 m/s, 41° | - | - |
| 1778038777 | 25.56° C | 83% | 1014.4 hPa | 0 mm | 0.89 m/s, 39° | - | - |
| 1778038477 | 25.56° C | 83% | 1014.4 hPa | 0 mm | 1.34 m/s, 57° | - | - |
| 1778038177 | 25.56° C | 83% | 1014.5 hPa | 0 mm | 1.34 m/s, 80° | - | - |
| 1778037877 | 25.56° C | 83% | 1014.4 hPa | 0 mm | 1.34 m/s, 45° | - | - |
| 1778037577 | 25.56° C | 82% | 1014.5 hPa | 0 mm | 1.34 m/s, 44° | - | - |
| 1778037277 | 26.11° C | 81% | 1014.3 hPa | 0 mm | 2.24 m/s, 87° | - | - |
| 1778036977 | 26.11° C | 81% | 1014.3 hPa | 0 mm | 0.89 m/s, 32° | - | - |
| 1778036677 | 25.56° C | 84% | 1014.3 hPa | 0 mm | 1.34 m/s, 85° | - | - |
* Rain latest hour (hover to see other rain measurements)
** Current wind speed in m/s (hover to see current wind gust speed)